createdAt,value
2023-01-23T00:00:19.464Z,100573.14
2023-01-23T00:03:21.378Z,100571.05
2023-01-23T00:06:18.217Z,100579.79
2023-01-23T00:09:11.215Z,100587.02
2023-01-23T00:12:05.436Z,100582.13
2023-01-23T00:14:58.656Z,100585.31
2023-01-23T00:17:42.655Z,100584.15
2023-01-23T00:20:30.708Z,100590.60
2023-01-23T00:23:23.534Z,100593.63
2023-01-23T00:26:18.722Z,100594.63
2023-01-23T00:29:11.683Z,100597.59
2023-01-23T00:32:05.117Z,100595.52
2023-01-23T00:34:58.772Z,100595.38
2023-01-23T00:37:52.885Z,100593.77
2023-01-23T00:40:38.391Z,100595.45
2023-01-23T00:43:24.348Z,100594.25
2023-01-23T00:46:17.529Z,100595.18
2023-01-23T00:49:10.028Z,100598.10
2023-01-23T00:52:02.963Z,100600.98
2023-01-23T00:54:56.114Z,100601.84
2023-01-23T00:57:48.861Z,100601.60
2023-01-23T01:00:42.295Z,100605.42
2023-01-23T01:03:35.216Z,100609.48
2023-01-23T01:06:29.986Z,100607.88
2023-01-23T01:09:22.957Z,100611.04
2023-01-23T01:12:16.528Z,100605.84
2023-01-23T01:15:12.192Z,100607.16
2023-01-23T01:18:06.544Z,100613.77
2023-01-23T01:20:52.759Z,100620.27
2023-01-23T01:23:40.278Z,100616.17
2023-01-23T01:26:33.556Z,100618.50
2023-01-23T01:29:26.886Z,100622.14
2023-01-23T01:32:19.732Z,100626.49
2023-01-23T01:35:14.960Z,100624.35
2023-01-23T01:38:00.682Z,100621.05
2023-01-23T01:40:52.831Z,100626.51
2023-01-23T01:43:46.417Z,100625.17
2023-01-23T01:46:41.241Z,100626.00
2023-01-23T01:49:35.529Z,100626.45
2023-01-23T01:52:23.607Z,100632.98
2023-01-23T01:55:16.698Z,100640.89
2023-01-23T01:58:02.267Z,100639.48
2023-01-23T02:00:55.489Z,100643.70
2023-01-23T02:03:51.752Z,100648.66
2023-01-23T02:06:38.731Z,100651.89
2023-01-23T02:09:33.787Z,100648.14
2023-01-23T02:12:28.330Z,100644.04
2023-01-23T02:15:24.521Z,100648.21
2023-01-23T02:18:10.320Z,100657.86
2023-01-23T02:21:07.585Z,100660.34
2023-01-23T02:24:19.744Z,100658.89
2023-01-23T02:27:12.865Z,100653.92
2023-01-23T02:29:58.776Z,100649.05
2023-01-23T02:32:51.766Z,100648.23
2023-01-23T02:35:44.629Z,100646.79
2023-01-23T02:38:42.409Z,100646.11
2023-01-23T02:41:37.451Z,100643.75
2023-01-23T02:44:32.094Z,100643.55
2023-01-23T02:47:25.517Z,100639.91
2023-01-23T02:50:19.211Z,100642.86
2023-01-23T02:53:13.611Z,100647.84
2023-01-23T02:56:09.042Z,100656.27
2023-01-23T02:59:20.190Z,100659.25
2023-01-23T03:02:04.338Z,100659.06
2023-01-23T03:04:57.300Z,100654.27
2023-01-23T03:07:50.208Z,100658.92
2023-01-23T03:10:34.572Z,100661.13
2023-01-23T03:13:27.496Z,100660.92
2023-01-23T03:16:21.683Z,100661.35
2023-01-23T03:19:14.586Z,100665.05
2023-01-23T03:22:09.503Z,100666.20
2023-01-23T03:24:57.935Z,100668.73
2023-01-23T03:27:52.320Z,100671.79
2023-01-23T03:30:45.356Z,100673.73
2023-01-23T03:33:31.580Z,100668.21
2023-01-23T03:36:18.407Z,100665.96
2023-01-23T03:39:28.929Z,100663.81
2023-01-23T03:42:21.977Z,100664.05
2023-01-23T03:45:16.287Z,100661.18
2023-01-23T03:48:09.813Z,100663.66
2023-01-23T03:50:56.776Z,100659.86
2023-01-23T03:53:49.918Z,100655.40
2023-01-23T03:56:36.587Z,100653.77
2023-01-23T03:59:22.724Z,100654.16
2023-01-23T04:02:15.867Z,100653.90
2023-01-23T04:05:01.804Z,100658.63
2023-01-23T04:07:54.770Z,100664.38
2023-01-23T04:10:48.532Z,100666.15
2023-01-23T04:13:41.583Z,100664.40
2023-01-23T04:16:34.875Z,100671.15
2023-01-23T04:19:21.227Z,100678.02
2023-01-23T04:22:14.153Z,100677.52
2023-01-23T04:25:06.743Z,100680.13
2023-01-23T04:27:59.753Z,100687.02
2023-01-23T04:30:53.686Z,100693.86
2023-01-23T04:33:49.641Z,100694.17
2023-01-23T04:36:44.000Z,100695.66
2023-01-23T04:39:37.049Z,100699.96
2023-01-23T04:42:23.710Z,100709.04
2023-01-23T04:45:28.733Z,100714.20
2023-01-23T04:48:22.537Z,100710.08
2023-01-23T04:51:15.649Z,100717.79
2023-01-23T04:54:10.247Z,100721.06
2023-01-23T04:57:03.515Z,100725.80
2023-01-23T04:59:58.121Z,100727.83
2023-01-23T05:02:47.153Z,100727.82
2023-01-23T05:05:40.616Z,100732.13
2023-01-23T05:08:33.690Z,100729.37
2023-01-23T05:11:29.420Z,100733.97
2023-01-23T05:14:24.472Z,100734.55
2023-01-23T05:17:02.825Z,100732.76
2023-01-23T05:19:52.581Z,100735.77
2023-01-23T05:22:39.589Z,100733.25
2023-01-23T05:25:27.420Z,100739.76
2023-01-23T05:28:22.225Z,100741.42
2023-01-23T05:31:15.070Z,100742.77
2023-01-23T05:34:08.202Z,100745.63
2023-01-23T05:37:01.427Z,100740.81
2023-01-23T05:39:54.883Z,100745.77
2023-01-23T05:42:47.845Z,100749.64
2023-01-23T05:45:46.702Z,100749.72
2023-01-23T05:48:39.609Z,100753.80
2023-01-23T05:51:34.130Z,100762.66
2023-01-23T05:54:26.234Z,100768.12
2023-01-23T05:57:19.288Z,100769.21
2023-01-23T06:00:15.623Z,100771.09
2023-01-23T06:03:08.853Z,100773.38
2023-01-23T06:06:05.276Z,100777.05
2023-01-23T06:08:51.058Z,100781.71
2023-01-23T06:11:43.949Z,100788.53
2023-01-23T06:14:36.138Z,100789.05
2023-01-23T06:17:30.634Z,100793.09
2023-01-23T06:20:23.725Z,100798.04
2023-01-23T06:23:16.737Z,100804.58
2023-01-23T06:26:10.659Z,100806.65
2023-01-23T06:29:03.430Z,100810.70
2023-01-23T06:31:56.369Z,100813.54
2023-01-23T06:34:49.308Z,100814.55
2023-01-23T06:37:42.552Z,100819.10
2023-01-23T06:40:36.188Z,100819.15
2023-01-23T06:43:29.866Z,100825.95
2023-01-23T06:46:23.001Z,100826.39
2023-01-23T06:49:15.995Z,100827.52
2023-01-23T06:52:09.367Z,100825.88
2023-01-23T06:55:02.052Z,100823.61
2023-01-23T06:57:55.751Z,100826.03
2023-01-23T07:00:48.781Z,100828.02
2023-01-23T07:03:42.142Z,100828.73
2023-01-23T07:06:35.271Z,100827.84
2023-01-23T07:09:29.075Z,100825.85
2023-01-23T07:12:25.388Z,100823.25
2023-01-23T07:15:13.973Z,100824.41
2023-01-23T07:18:07.045Z,100825.84
2023-01-23T07:21:02.060Z,100824.56
2023-01-23T07:23:54.808Z,100828.96
2023-01-23T07:26:37.790Z,100826.33
2023-01-23T07:29:31.177Z,100831.27
2023-01-23T07:32:24.022Z,100830.21
2023-01-23T07:35:16.962Z,100828.09
2023-01-23T07:38:10.043Z,100833.98
2023-01-23T07:41:03.506Z,100834.20
2023-01-23T07:43:50.423Z,100834.83
2023-01-23T07:46:43.816Z,100837.90
2023-01-23T07:49:36.786Z,100838.98
2023-01-23T07:52:29.935Z,100838.30
2023-01-23T07:55:23.019Z,100838.55
2023-01-23T07:58:16.213Z,100839.83
2023-01-23T08:01:17.594Z,100841.15
2023-01-23T08:04:10.723Z,100838.62
2023-01-23T08:07:03.971Z,100840.02
2023-01-23T08:09:57.109Z,100845.53
2023-01-23T08:12:54.591Z,100845.73
2023-01-23T08:15:48.431Z,100845.46
2023-01-23T08:18:41.614Z,100847.69
2023-01-23T08:21:34.945Z,100854.87
2023-01-23T08:24:25.343Z,100859.97
2023-01-23T08:27:15.259Z,100862.30
2023-01-23T08:30:12.849Z,100868.59
2023-01-23T08:32:58.336Z,100867.88
2023-01-23T08:35:54.499Z,100868.50
2023-01-23T08:38:47.678Z,100869.04
2023-01-23T08:41:41.164Z,100869.20
2023-01-23T08:44:34.424Z,100867.15
2023-01-23T08:47:27.670Z,100866.00
2023-01-23T08:50:20.350Z,100869.98
2023-01-23T08:53:13.964Z,100870.65
2023-01-23T08:56:09.736Z,100874.63
2023-01-23T08:59:02.679Z,100874.60
2023-01-23T09:01:55.647Z,100875.98
2023-01-23T09:04:42.520Z,100882.52
2023-01-23T09:07:38.149Z,100879.77
2023-01-23T09:10:30.996Z,100886.38
2023-01-23T09:13:23.872Z,100888.85
2023-01-23T09:16:17.395Z,100885.23
2023-01-23T09:19:02.642Z,100887.23
2023-01-23T09:21:58.037Z,100885.65
2023-01-23T09:24:50.937Z,100882.98
2023-01-23T09:27:44.024Z,100884.92
2023-01-23T09:30:37.286Z,100882.00
2023-01-23T09:33:30.511Z,100879.23
2023-01-23T09:36:37.541Z,100877.35
2023-01-23T09:39:33.507Z,100881.67
2023-01-23T09:42:34.638Z,100878.30
2023-01-23T09:45:24.635Z,100871.48
2023-01-23T09:48:28.465Z,100874.36
2023-01-23T09:51:20.327Z,100875.43
2023-01-23T09:54:23.782Z,100879.66
2023-01-23T09:57:22.555Z,100880.02
2023-01-23T10:00:23.870Z,100878.10
2023-01-23T10:03:18.250Z,100873.46
2023-01-23T10:06:21.811Z,100872.39
2023-01-23T10:09:32.194Z,100870.13
2023-01-23T10:12:37.298Z,100871.68
2023-01-23T10:15:41.969Z,100870.11
2023-01-23T10:18:38.681Z,100870.47
2023-01-23T10:21:38.572Z,100868.84
2023-01-23T10:24:47.860Z,100870.41
2023-01-23T10:27:44.471Z,100871.02
2023-01-23T10:30:39.782Z,100873.39
2023-01-23T10:33:36.082Z,100871.00
2023-01-23T10:36:47.636Z,100872.75
2023-01-23T10:39:56.119Z,100872.91
2023-01-23T10:42:49.271Z,100873.27
2023-01-23T10:45:43.578Z,100871.98
2023-01-23T10:48:43.767Z,100867.85
2023-01-23T10:51:48.685Z,100867.06
2023-01-23T10:54:49.663Z,100862.00
2023-01-23T10:58:06.948Z,100859.04
2023-01-23T11:00:57.281Z,100853.43
2023-01-23T11:03:50.384Z,100854.10
2023-01-23T11:06:43.159Z,100856.66
2023-01-23T11:09:56.762Z,100853.90
2023-01-23T11:12:54.206Z,100854.36
2023-01-23T11:15:51.302Z,100847.73
2023-01-23T11:18:44.392Z,100848.66
2023-01-23T11:21:53.423Z,100843.72
2023-01-23T11:24:46.503Z,100843.46
2023-01-23T11:27:40.060Z,100846.06
2023-01-23T11:30:40.047Z,100844.40
2023-01-23T11:33:33.591Z,100847.66
2023-01-23T11:36:45.837Z,100845.41
2023-01-23T11:39:51.643Z,100845.80
2023-01-23T11:42:47.799Z,100843.58
2023-01-23T11:45:47.792Z,100845.11
2023-01-23T11:48:52.637Z,100843.11
2023-01-23T11:51:55.957Z,100841.80
2023-01-23T11:55:05.105Z,100839.20
2023-01-23T11:58:04.029Z,100839.83
2023-01-23T12:01:08.825Z,100844.10
2023-01-23T12:04:33.426Z,100842.08
2023-01-23T12:07:22.049Z,100842.67
2023-01-23T12:10:25.455Z,100846.21
2023-01-23T12:13:37.596Z,100846.56
2023-01-23T12:16:41.276Z,100847.17
2023-01-23T12:20:03.136Z,100847.82
2023-01-23T12:23:08.279Z,100848.04
2023-01-23T12:25:57.512Z,100844.58
2023-01-23T12:29:07.263Z,100846.08
2023-01-23T12:32:05.997Z,100850.92
2023-01-23T12:35:05.610Z,100848.43
2023-01-23T12:38:14.303Z,100850.13
2023-01-23T12:41:10.658Z,100847.40
2023-01-23T12:44:03.373Z,100852.27
2023-01-23T12:47:00.392Z,100856.28
2023-01-23T12:49:57.953Z,100851.79
2023-01-23T12:52:55.140Z,100854.09
2023-01-23T12:55:59.685Z,100853.05
2023-01-23T12:58:49.709Z,100854.16
2023-01-23T13:01:56.822Z,100856.27
2023-01-23T13:05:06.697Z,100857.05
2023-01-23T13:08:04.376Z,100852.93
2023-01-23T13:11:28.735Z,100856.19
2023-01-23T13:14:32.851Z,100854.05
2023-01-23T13:17:39.274Z,100853.29
2023-01-23T13:20:53.723Z,100855.98
2023-01-23T13:23:46.852Z,100854.00
2023-01-23T13:26:39.928Z,100857.28
2023-01-23T13:29:49.365Z,100861.91
2023-01-23T13:32:43.736Z,100864.99
2023-01-23T13:35:56.373Z,100871.91
2023-01-23T13:39:25.481Z,100872.37
2023-01-23T13:42:46.765Z,100878.45
2023-01-23T13:45:37.152Z,100880.80
2023-01-23T14:23:26.520Z,100889.78
2023-01-23T14:26:16.751Z,100893.55
2023-01-23T14:29:24.156Z,100889.95
2023-01-23T14:32:25.574Z,100888.48
2023-01-23T14:35:25.263Z,100889.23
2023-01-23T14:38:24.683Z,100892.59
2023-01-23T14:41:28.013Z,100888.77
2023-01-23T14:44:27.502Z,100891.27
2023-01-23T14:47:15.651Z,100890.05
2023-01-23T14:50:17.254Z,100892.52
2023-01-23T14:53:07.120Z,100896.73
2023-01-23T14:56:01.985Z,100900.19
2023-01-23T14:58:53.581Z,100902.48
2023-01-23T15:01:56.198Z,100902.95
2023-01-23T15:04:33.818Z,100905.62
2023-01-23T15:07:25.823Z,100909.13
2023-01-23T15:10:25.501Z,100909.92
2023-01-23T15:13:14.291Z,100907.94
2023-01-23T15:16:19.711Z,100906.64
2023-01-23T15:19:24.423Z,100910.00
2023-01-23T15:22:09.110Z,100908.33
2023-01-23T15:25:20.952Z,100909.36
2023-01-23T15:28:40.590Z,100912.11
2023-01-23T15:31:32.300Z,100914.94
2023-01-23T15:34:26.345Z,100916.43
2023-01-23T15:37:25.973Z,100917.16
2023-01-23T15:40:27.703Z,100918.30
2023-01-23T15:43:08.809Z,100920.30
2023-01-23T15:46:01.844Z,100924.88
2023-01-23T15:48:40.362Z,100931.59
2023-01-23T15:51:33.600Z,100934.40
2023-01-23T15:54:21.305Z,100934.28
2023-01-23T15:57:07.664Z,100939.19
2023-01-23T15:59:57.206Z,100937.86
2023-01-23T16:02:39.373Z,100938.33
2023-01-23T16:05:17.359Z,100942.15
2023-01-23T16:07:57.741Z,100947.39
2023-01-23T16:10:51.371Z,100947.28
2023-01-23T16:13:44.496Z,100946.41
2023-01-23T16:16:36.497Z,100943.14
2023-01-23T16:19:29.273Z,100948.44
2023-01-23T16:22:26.989Z,100944.15
2023-01-23T16:25:41.895Z,100949.18
2023-01-23T16:28:35.858Z,100953.77
2023-01-23T16:31:15.201Z,100955.75
2023-01-23T16:34:01.066Z,100962.10
2023-01-23T16:36:36.610Z,100965.17
2023-01-23T16:39:24.659Z,100964.54
2023-01-23T16:42:23.612Z,100967.64
2023-01-23T16:45:23.256Z,100972.14
2023-01-23T16:48:01.428Z,100973.98
2023-01-23T16:50:44.006Z,100975.17
2023-01-23T16:53:33.064Z,100973.30
2023-01-23T16:56:30.949Z,100974.29
2023-01-23T16:59:29.611Z,100978.73
2023-01-23T17:02:29.089Z,100975.25
2023-01-23T17:05:22.591Z,100974.70
2023-01-23T17:08:12.601Z,100974.13
2023-01-23T17:10:46.962Z,100971.13
2023-01-23T17:13:35.893Z,100972.65
2023-01-23T17:16:31.315Z,100970.27
2023-01-23T17:19:30.776Z,100974.66
2023-01-23T17:22:24.936Z,100976.09
2023-01-23T17:25:20.372Z,100976.63
2023-01-23T17:28:11.155Z,100973.44
2023-01-23T17:30:48.286Z,100971.89
2023-01-23T17:33:42.665Z,100969.51
2023-01-23T17:36:36.539Z,100970.29
2023-01-23T17:39:25.804Z,100973.80
2023-01-23T17:42:10.799Z,100974.35
2023-01-23T17:45:06.707Z,100978.95
2023-01-23T17:47:42.760Z,100984.86
2023-01-23T17:50:27.208Z,100982.80
2023-01-23T17:52:59.955Z,100984.83
2023-01-23T17:55:54.123Z,100985.13
2023-01-23T17:58:47.066Z,100985.80
2023-01-23T18:01:34.310Z,100988.96
2023-01-23T18:04:21.326Z,100986.01
2023-01-23T18:07:16.781Z,100988.58
2023-01-23T18:10:12.823Z,100987.55
2023-01-23T18:13:21.616Z,100990.63
2023-01-23T18:16:20.268Z,100989.03
2023-01-23T18:19:18.401Z,100993.73
2023-01-23T18:22:14.481Z,100990.42
2023-01-23T18:25:14.164Z,100988.79
2023-01-23T18:28:06.438Z,100988.98
2023-01-23T18:31:00.525Z,100990.35
2023-01-23T18:34:03.123Z,100990.55
2023-01-23T18:37:00.904Z,100994.98
2023-01-23T18:40:00.424Z,100997.40
2023-01-23T18:42:46.144Z,100994.91
2023-01-23T18:45:28.074Z,100988.98
2023-01-23T18:48:25.919Z,100991.88
2023-01-23T18:51:33.162Z,100994.11
2023-01-23T18:54:26.737Z,100994.48
2023-01-23T18:57:31.411Z,100996.84
2023-01-23T19:00:24.210Z,100997.63
2023-01-23T19:03:12.190Z,101000.05
2023-01-23T19:05:45.476Z,100999.07
2023-01-23T19:08:39.120Z,101002.04
2023-01-23T19:11:33.556Z,101000.13
2023-01-23T19:14:51.356Z,100997.05
2023-01-23T19:17:52.593Z,100994.77
2023-01-23T19:20:45.727Z,101000.02
2023-01-23T19:23:33.935Z,101000.41
2023-01-23T19:26:15.116Z,100999.73
2023-01-23T19:29:21.091Z,100998.60
2023-01-23T19:32:12.234Z,100997.64
2023-01-23T19:35:13.781Z,100997.94
2023-01-23T19:38:00.467Z,100995.73
2023-01-23T19:40:53.438Z,100997.16
2023-01-23T19:43:44.654Z,101000.39
2023-01-23T19:46:21.310Z,101001.64
2023-01-23T19:49:06.802Z,101000.13
2023-01-23T19:51:49.589Z,100999.30
2023-01-23T19:54:42.311Z,100999.29
2023-01-23T19:57:35.076Z,100999.29
2023-01-23T20:00:29.669Z,100996.61
2023-01-23T20:03:22.456Z,100997.55
2023-01-23T20:06:00.181Z,101000.11
2023-01-23T20:08:40.108Z,101004.80
2023-01-23T20:11:16.128Z,101008.25
2023-01-23T20:13:52.024Z,101004.29
2023-01-23T20:16:45.693Z,101005.96
2023-01-23T20:19:39.746Z,101006.25
2023-01-23T20:22:19.328Z,101001.52
2023-01-23T20:25:05.011Z,100999.25
2023-01-23T20:27:50.744Z,100997.19
2023-01-23T20:30:43.561Z,100995.09
2023-01-23T20:33:37.007Z,100996.28
2023-01-23T20:36:29.917Z,100998.67
2023-01-23T20:39:16.642Z,101002.44
2023-01-23T20:42:02.020Z,101015.92
2023-01-23T20:44:54.852Z,101017.90
2023-01-23T20:47:51.238Z,101017.92
2023-01-23T20:50:31.455Z,101020.15
2023-01-23T20:53:34.241Z,101024.02
2023-01-23T20:56:20.009Z,101028.48
2023-01-23T20:59:25.236Z,101029.34
2023-01-23T21:02:25.831Z,101038.80
2023-01-23T21:05:19.452Z,101038.48
2023-01-23T21:08:09.777Z,101037.77
2023-01-23T21:10:56.425Z,101038.95
2023-01-23T21:13:54.647Z,101041.64
2023-01-23T21:16:45.411Z,101045.90
2023-01-23T21:19:49.286Z,101049.11
2023-01-23T21:22:42.119Z,101046.91
2023-01-23T21:25:15.127Z,101049.85
2023-01-23T21:28:09.757Z,101055.05
2023-01-23T21:30:54.297Z,101054.68
2023-01-23T21:33:47.618Z,101053.91
2023-01-23T21:36:41.919Z,101052.09
2023-01-23T21:39:35.368Z,101054.71
2023-01-23T21:42:29.350Z,101055.73
2023-01-23T21:45:14.876Z,101058.35
2023-01-23T21:48:08.245Z,101059.48
2023-01-23T21:51:08.739Z,101057.41
2023-01-23T21:54:01.702Z,101059.45
2023-01-23T21:56:47.465Z,101057.70
2023-01-23T21:59:40.170Z,101062.87
2023-01-23T22:02:35.678Z,101064.25
2023-01-23T22:05:12.741Z,101062.58
2023-01-23T22:08:07.070Z,101063.21
2023-01-23T22:11:00.484Z,101061.88
2023-01-23T22:13:53.342Z,101064.21
2023-01-23T22:16:49.756Z,101062.52
2023-01-23T22:19:36.390Z,101059.27
2023-01-23T22:22:28.323Z,101059.48
2023-01-23T22:25:22.097Z,101059.58
2023-01-23T22:28:09.123Z,101059.89
2023-01-23T22:31:08.074Z,101059.20
2023-01-23T22:34:00.891Z,101062.20
2023-01-23T22:36:43.681Z,101056.38
2023-01-23T22:39:30.434Z,101061.44
2023-01-23T22:42:23.206Z,101064.52
2023-01-23T22:45:16.354Z,101061.38
2023-01-23T22:48:09.610Z,101056.30
2023-01-23T22:50:55.415Z,101053.31
2023-01-23T22:54:08.806Z,101052.52
2023-01-23T22:57:00.694Z,101048.41
2023-01-23T22:59:33.546Z,101046.11
2023-01-23T23:02:26.226Z,101051.68
2023-01-23T23:05:19.592Z,101053.24
2023-01-23T23:08:13.714Z,101050.72
2023-01-23T23:11:08.469Z,101052.17
2023-01-23T23:14:03.283Z,101058.17
2023-01-23T23:16:48.722Z,101055.69
2023-01-23T23:19:41.518Z,101054.37
2023-01-23T23:22:34.742Z,101051.58
2023-01-23T23:25:20.795Z,101052.84
2023-01-23T23:28:13.843Z,101054.19
2023-01-23T23:31:07.071Z,101055.95
2023-01-23T23:33:40.596Z,101054.56
2023-01-23T23:36:33.273Z,101058.02
2023-01-23T23:39:14.973Z,101059.30
2023-01-23T23:42:06.592Z,101060.83
2023-01-23T23:44:59.585Z,101057.59
2023-01-23T23:47:46.140Z,101058.73
2023-01-23T23:50:39.077Z,101057.86
2023-01-23T23:53:32.155Z,101061.05
2023-01-23T23:56:23.175Z,101063.38
2023-01-23T23:59:18.148Z,101061.16
